sensor_id;sensor_type;location;lat;lon;timestamp;temperature;humidity
13344;DHT22;6741;48.964;9.406;2024-02-15T00:00:24;9.10;99.90
13344;DHT22;6741;48.964;9.406;2024-02-15T00:02:52;9.10;99.90
13344;DHT22;6741;48.964;9.406;2024-02-15T00:05:20;9.10;99.90
13344;DHT22;6741;48.964;9.406;2024-02-15T00:07:47;9.10;99.90
13344;DHT22;6741;48.964;9.406;2024-02-15T00:10:14;9.10;99.90
13344;DHT22;6741;48.964;9.406;2024-02-15T00:12:41;9.10;99.90
13344;DHT22;6741;48.964;9.406;2024-02-15T00:15:08;9.10;99.90
13344;DHT22;6741;48.964;9.406;2024-02-15T00:17:36;9.10;99.90
13344;DHT22;6741;48.964;9.406;2024-02-15T00:20:03;9.10;99.90
13344;DHT22;6741;48.964;9.406;2024-02-15T00:22:36;9.20;99.90
13344;DHT22;6741;48.964;9.406;2024-02-15T00:25:04;9.10;99.90
13344;DHT22;6741;48.964;9.406;2024-02-15T00:27:31;9.10;99.90
13344;DHT22;6741;48.964;9.406;2024-02-15T00:30:00;9.10;99.90
13344;DHT22;6741;48.964;9.406;2024-02-15T00:32:27;9.10;99.90
13344;DHT22;6741;48.964;9.406;2024-02-15T00:34:54;9.10;99.90
13344;DHT22;6741;48.964;9.406;2024-02-15T00:37:20;9.10;99.90
13344;DHT22;6741;48.964;9.406;2024-02-15T00:39:49;9.00;99.90
13344;DHT22;6741;48.964;9.406;2024-02-15T00:42:15;9.00;99.90
13344;DHT22;6741;48.964;9.406;2024-02-15T00:44:42;8.90;99.90
13344;DHT22;6741;48.964;9.406;2024-02-15T00:47:09;8.90;99.90
13344;DHT22;6741;48.964;9.406;2024-02-15T00:49:37;8.80;99.90
13344;DHT22;6741;48.964;9.406;2024-02-15T00:52:05;8.70;99.90
13344;DHT22;6741;48.964;9.406;2024-02-15T00:54:32;8.70;99.90
13344;DHT22;6741;48.964;9.406;2024-02-15T00:57:00;8.70;99.90
13344;DHT22;6741;48.964;9.406;2024-02-15T00:59:27;8.70;99.90
13344;DHT22;6741;48.964;9.406;2024-02-15T01:01:54;8.70;99.90
13344;DHT22;6741;48.964;9.406;2024-02-15T01:04:21;8.80;99.90
13344;DHT22;6741;48.964;9.406;2024-02-15T01:06:48;8.80;99.90
13344;DHT22;6741;48.964;9.406;2024-02-15T01:09:15;8.80;99.90
13344;DHT22;6741;48.964;9.406;2024-02-15T01:11:42;8.80;99.90
13344;DHT22;6741;48.964;9.406;2024-02-15T01:14:10;8.80;99.90
13344;DHT22;6741;48.964;9.406;2024-02-15T01:16:37;8.80;99.90
13344;DHT22;6741;48.964;9.406;2024-02-15T01:19:04;8.70;99.90
13344;DHT22;6741;48.964;9.406;2024-02-15T01:21:31;8.70;99.90
13344;DHT22;6741;48.964;9.406;2024-02-15T01:23:58;8.70;99.90
13344;DHT22;6741;48.964;9.406;2024-02-15T01:26:26;8.70;99.90
13344;DHT22;6741;48.964;9.406;2024-02-15T01:28:52;8.60;99.90
13344;DHT22;6741;48.964;9.406;2024-02-15T01:31:21;8.60;99.90
13344;DHT22;6741;48.964;9.406;2024-02-15T01:33:48;8.50;99.90
13344;DHT22;6741;48.964;9.406;2024-02-15T01:36:15;8.40;99.90
13344;DHT22;6741;48.964;9.406;2024-02-15T01:38:42;8.40;99.90
13344;DHT22;6741;48.964;9.406;2024-02-15T01:41:09;8.20;99.90
13344;DHT22;6741;48.964;9.406;2024-02-15T01:43:36;8.20;99.90
13344;DHT22;6741;48.964;9.406;2024-02-15T01:46:08;8.20;99.90
13344;DHT22;6741;48.964;9.406;2024-02-15T01:48:37;8.10;99.90
13344;DHT22;6741;48.964;9.406;2024-02-15T01:51:07;8.20;99.90
13344;DHT22;6741;48.964;9.406;2024-02-15T01:53:34;8.10;99.90
13344;DHT22;6741;48.964;9.406;2024-02-15T01:56:01;8.10;99.90
13344;DHT22;6741;48.964;9.406;2024-02-15T01:58:29;8.00;99.90
13344;DHT22;6741;48.964;9.406;2024-02-15T02:00:58;7.90;99.90
13344;DHT22;6741;48.964;9.406;2024-02-15T02:03:26;7.80;99.90
13344;DHT22;6741;48.964;9.406;2024-02-15T02:05:54;7.80;99.90
13344;DHT22;6741;48.964;9.406;2024-02-15T02:08:22;7.70;99.90
13344;DHT22;6741;48.964;9.406;2024-02-15T02:10:49;7.70;99.90
13344;DHT22;6741;48.964;9.406;2024-02-15T02:13:16;7.70;99.90
13344;DHT22;6741;48.964;9.406;2024-02-15T02:15:43;7.60;99.90
13344;DHT22;6741;48.964;9.406;2024-02-15T02:18:10;7.60;99.90
13344;DHT22;6741;48.964;9.406;2024-02-15T02:20:37;7.70;99.90
13344;DHT22;6741;48.964;9.406;2024-02-15T02:23:08;7.60;99.90
13344;DHT22;6741;48.964;9.406;2024-02-15T02:25:37;7.60;99.90
13344;DHT22;6741;48.964;9.406;2024-02-15T02:28:05;7.50;99.90
13344;DHT22;6741;48.964;9.406;2024-02-15T02:30:32;7.50;99.90
13344;DHT22;6741;48.964;9.406;2024-02-15T02:33:00;7.40;99.90
13344;DHT22;6741;48.964;9.406;2024-02-15T02:35:27;7.40;99.90
13344;DHT22;6741;48.964;9.406;2024-02-15T02:37:56;7.40;99.90
13344;DHT22;6741;48.964;9.406;2024-02-15T02:40:23;7.40;99.90
13344;DHT22;6741;48.964;9.406;2024-02-15T02:42:52;7.50;99.90
13344;DHT22;6741;48.964;9.406;2024-02-15T02:45:19;7.50;99.90
13344;DHT22;6741;48.964;9.406;2024-02-15T02:47:48;7.60;99.90
13344;DHT22;6741;48.964;9.406;2024-02-15T02:50:15;7.60;99.90
13344;DHT22;6741;48.964;9.406;2024-02-15T02:52:42;7.50;99.90
13344;DHT22;6741;48.964;9.406;2024-02-15T02:55:10;7.40;99.90
13344;DHT22;6741;48.964;9.406;2024-02-15T02:57:37;7.40;99.90
13344;DHT22;6741;48.964;9.406;2024-02-15T03:00:07;7.40;99.90
13344;DHT22;6741;48.964;9.406;2024-02-15T03:02:38;7.40;99.90
13344;DHT22;6741;48.964;9.406;2024-02-15T03:05:05;7.40;99.90
13344;DHT22;6741;48.964;9.406;2024-02-15T03:07:34;7.50;99.90
13344;DHT22;6741;48.964;9.406;2024-02-15T03:10:01;7.40;99.90
13344;DHT22;6741;48.964;9.406;2024-02-15T03:12:30;7.40;99.90
13344;DHT22;6741;48.964;9.406;2024-02-15T03:14:56;7.30;99.90
13344;DHT22;6741;48.964;9.406;2024-02-15T03:17:24;7.20;99.90
13344;DHT22;6741;48.964;9.406;2024-02-15T03:19:51;7.30;99.90
13344;DHT22;6741;48.964;9.406;2024-02-15T03:22:18;7.20;99.90
13344;DHT22;6741;48.964;9.406;2024-02-15T03:24:46;7.10;99.90
13344;DHT22;6741;48.964;9.406;2024-02-15T03:27:12;7.10;99.90
13344;DHT22;6741;48.964;9.406;2024-02-15T03:29:39;7.10;99.90
13344;DHT22;6741;48.964;9.406;2024-02-15T03:32:06;7.10;99.90
13344;DHT22;6741;48.964;9.406;2024-02-15T03:34:37;7.10;99.90
13344;DHT22;6741;48.964;9.406;2024-02-15T03:37:05;7.10;99.90
13344;DHT22;6741;48.964;9.406;2024-02-15T03:39:32;7.10;99.90
13344;DHT22;6741;48.964;9.406;2024-02-15T03:41:59;7.10;99.90
13344;DHT22;6741;48.964;9.406;2024-02-15T03:44:26;7.00;99.90
13344;DHT22;6741;48.964;9.406;2024-02-15T03:46:52;7.00;99.90
13344;DHT22;6741;48.964;9.406;2024-02-15T03:49:20;7.10;99.90
13344;DHT22;6741;48.964;9.406;2024-02-15T03:51:49;7.10;99.90
13344;DHT22;6741;48.964;9.406;2024-02-15T03:54:16;7.10;99.90
13344;DHT22;6741;48.964;9.406;2024-02-15T03:56:47;7.10;99.90
13344;DHT22;6741;48.964;9.406;2024-02-15T03:59:18;7.00;99.90
13344;DHT22;6741;48.964;9.406;2024-02-15T04:01:50;6.90;99.90
13344;DHT22;6741;48.964;9.406;2024-02-15T04:04:17;6.90;99.90
13344;DHT22;6741;48.964;9.406;2024-02-15T04:06:46;7.00;99.90
13344;DHT22;6741;48.964;9.406;2024-02-15T04:09:15;7.10;99.90
13344;DHT22;6741;48.964;9.406;2024-02-15T04:11:42;7.20;99.90
13344;DHT22;6741;48.964;9.406;2024-02-15T04:14:09;7.30;99.90
13344;DHT22;6741;48.964;9.406;2024-02-15T04:16:36;7.30;99.90
13344;DHT22;6741;48.964;9.406;2024-02-15T04:19:03;7.30;99.90
13344;DHT22;6741;48.964;9.406;2024-02-15T04:21:30;7.30;99.90
13344;DHT22;6741;48.964;9.406;2024-02-15T04:23:57;7.40;99.90
13344;DHT22;6741;48.964;9.406;2024-02-15T04:26:26;7.40;99.90
13344;DHT22;6741;48.964;9.406;2024-02-15T04:28:55;7.40;99.90
13344;DHT22;6741;48.964;9.406;2024-02-15T04:31:22;7.40;99.90
13344;DHT22;6741;48.964;9.406;2024-02-15T04:33:52;7.40;99.90
13344;DHT22;6741;48.964;9.406;2024-02-15T04:36:19;7.40;99.90
13344;DHT22;6741;48.964;9.406;2024-02-15T04:38:49;7.30;99.90
13344;DHT22;6741;48.964;9.406;2024-02-15T04:41:16;7.40;99.90
13344;DHT22;6741;48.964;9.406;2024-02-15T04:43:47;7.40;99.90
13344;DHT22;6741;48.964;9.406;2024-02-15T04:46:14;7.40;99.90
13344;DHT22;6741;48.964;9.406;2024-02-15T04:48:41;7.40;99.90
13344;DHT22;6741;48.964;9.406;2024-02-15T04:51:08;7.40;99.90
13344;DHT22;6741;48.964;9.406;2024-02-15T04:53:36;7.40;99.90
13344;DHT22;6741;48.964;9.406;2024-02-15T04:56:04;7.40;99.90
13344;DHT22;6741;48.964;9.406;2024-02-15T04:58:37;7.40;99.90
13344;DHT22;6741;48.964;9.406;2024-02-15T05:01:12;7.50;99.90
13344;DHT22;6741;48.964;9.406;2024-02-15T05:03:39;7.50;99.90
13344;DHT22;6741;48.964;9.406;2024-02-15T05:06:07;7.50;99.90
13344;DHT22;6741;48.964;9.406;2024-02-15T05:08:35;7.50;99.90
13344;DHT22;6741;48.964;9.406;2024-02-15T05:11:03;7.50;99.90
13344;DHT22;6741;48.964;9.406;2024-02-15T05:13:32;7.40;99.90
13344;DHT22;6741;48.964;9.406;2024-02-15T05:15:59;7.50;99.90
13344;DHT22;6741;48.964;9.406;2024-02-15T05:18:27;7.50;99.90
13344;DHT22;6741;48.964;9.406;2024-02-15T05:20:56;7.60;99.90
13344;DHT22;6741;48.964;9.406;2024-02-15T05:23:22;7.60;99.90
13344;DHT22;6741;48.964;9.406;2024-02-15T05:25:49;7.60;99.90
13344;DHT22;6741;48.964;9.406;2024-02-15T05:28:16;7.60;99.90
13344;DHT22;6741;48.964;9.406;2024-02-15T05:30:44;7.60;99.90
13344;DHT22;6741;48.964;9.406;2024-02-15T05:33:11;7.60;99.90
13344;DHT22;6741;48.964;9.406;2024-02-15T05:35:39;7.60;99.90
13344;DHT22;6741;48.964;9.406;2024-02-15T05:38:07;7.60;99.90
13344;DHT22;6741;48.964;9.406;2024-02-15T05:40:35;7.60;99.90
13344;DHT22;6741;48.964;9.406;2024-02-15T05:43:02;7.60;99.90
13344;DHT22;6741;48.964;9.406;2024-02-15T05:45:32;7.60;99.90
13344;DHT22;6741;48.964;9.406;2024-02-15T05:48:05;7.70;99.90
13344;DHT22;6741;48.964;9.406;2024-02-15T05:50:39;7.70;99.90
13344;DHT22;6741;48.964;9.406;2024-02-15T05:53:06;7.80;99.90
13344;DHT22;6741;48.964;9.406;2024-02-15T05:55:33;7.80;99.90
13344;DHT22;6741;48.964;9.406;2024-02-15T05:58:02;7.80;99.90
13344;DHT22;6741;48.964;9.406;2024-02-15T06:00:29;7.90;99.90
13344;DHT22;6741;48.964;9.406;2024-02-15T06:02:56;7.90;99.90
13344;DHT22;6741;48.964;9.406;2024-02-15T06:05:23;7.90;99.90
13344;DHT22;6741;48.964;9.406;2024-02-15T06:07:52;7.90;99.90
13344;DHT22;6741;48.964;9.406;2024-02-15T06:10:19;8.00;99.90
13344;DHT22;6741;48.964;9.406;2024-02-15T06:12:46;8.00;99.90
13344;DHT22;6741;48.964;9.406;2024-02-15T06:15:13;7.90;99.90
13344;DHT22;6741;48.964;9.406;2024-02-15T06:17:42;7.80;99.90
13344;DHT22;6741;48.964;9.406;2024-02-15T06:20:12;7.80;99.90
13344;DHT22;6741;48.964;9.406;2024-02-15T06:22:40;7.80;99.90
13344;DHT22;6741;48.964;9.406;2024-02-15T06:25:09;7.90;99.90
13344;DHT22;6741;48.964;9.406;2024-02-15T06:27:36;7.90;99.90
13344;DHT22;6741;48.964;9.406;2024-02-15T06:30:07;7.90;99.90
13344;DHT22;6741;48.964;9.406;2024-02-15T06:32:51;8.00;99.90
13344;DHT22;6741;48.964;9.406;2024-02-15T06:35:36;7.90;99.90
13344;DHT22;6741;48.964;9.406;2024-02-15T06:38:21;7.90;99.90
13344;DHT22;6741;48.964;9.406;2024-02-15T06:41:06;7.90;99.90
13344;DHT22;6741;48.964;9.406;2024-02-15T06:43:33;7.90;99.90
13344;DHT22;6741;48.964;9.406;2024-02-15T06:46:00;7.90;99.90
13344;DHT22;6741;48.964;9.406;2024-02-15T06:48:28;7.90;99.90
13344;DHT22;6741;48.964;9.406;2024-02-15T06:50:55;8.00;99.90
13344;DHT22;6741;48.964;9.406;2024-02-15T06:53:22;8.00;99.90
13344;DHT22;6741;48.964;9.406;2024-02-15T06:55:49;8.00;99.90
13344;DHT22;6741;48.964;9.406;2024-02-15T06:58:18;8.00;99.90
13344;DHT22;6741;48.964;9.406;2024-02-15T07:00:47;8.10;99.90
13344;DHT22;6741;48.964;9.406;2024-02-15T07:03:15;8.20;99.90
13344;DHT22;6741;48.964;9.406;2024-02-15T07:05:43;8.30;99.90
13344;DHT22;6741;48.964;9.406;2024-02-15T07:08:10;8.30;99.90
13344;DHT22;6741;48.964;9.406;2024-02-15T07:10:38;8.30;99.90
13344;DHT22;6741;48.964;9.406;2024-02-15T07:13:05;8.40;99.90
13344;DHT22;6741;48.964;9.406;2024-02-15T07:15:33;8.30;99.90
13344;DHT22;6741;48.964;9.406;2024-02-15T07:18:04;8.20;99.90
13344;DHT22;6741;48.964;9.406;2024-02-15T07:20:31;8.30;99.90
13344;DHT22;6741;48.964;9.406;2024-02-15T07:22:58;8.30;99.90
13344;DHT22;6741;48.964;9.406;2024-02-15T07:25:26;8.40;99.90
13344;DHT22;6741;48.964;9.406;2024-02-15T07:27:53;8.50;99.90
13344;DHT22;6741;48.964;9.406;2024-02-15T07:30:20;8.60;99.90
13344;DHT22;6741;48.964;9.406;2024-02-15T07:32:49;8.70;99.90
13344;DHT22;6741;48.964;9.406;2024-02-15T07:35:16;8.70;99.90
13344;DHT22;6741;48.964;9.406;2024-02-15T07:37:51;8.80;99.90
13344;DHT22;6741;48.964;9.406;2024-02-15T07:40:21;8.80;99.90
13344;DHT22;6741;48.964;9.406;2024-02-15T07:42:48;8.90;99.90
13344;DHT22;6741;48.964;9.406;2024-02-15T07:45:15;9.00;99.90
13344;DHT22;6741;48.964;9.406;2024-02-15T07:47:43;9.10;99.90
13344;DHT22;6741;48.964;9.406;2024-02-15T07:50:15;9.20;99.90
13344;DHT22;6741;48.964;9.406;2024-02-15T07:52:46;9.20;99.90
13344;DHT22;6741;48.964;9.406;2024-02-15T07:55:13;9.20;99.90
13344;DHT22;6741;48.964;9.406;2024-02-15T07:57:40;9.30;99.90
13344;DHT22;6741;48.964;9.406;2024-02-15T08:00:08;9.40;99.90
13344;DHT22;6741;48.964;9.406;2024-02-15T08:02:37;9.40;99.90
13344;DHT22;6741;48.964;9.406;2024-02-15T08:05:06;9.40;99.90
13344;DHT22;6741;48.964;9.406;2024-02-15T08:07:37;9.50;99.90
13344;DHT22;6741;48.964;9.406;2024-02-15T08:10:06;9.60;99.90
13344;DHT22;6741;48.964;9.406;2024-02-15T08:12:38;9.80;99.90
13344;DHT22;6741;48.964;9.406;2024-02-15T08:15:06;10.00;99.90
13344;DHT22;6741;48.964;9.406;2024-02-15T08:17:38;10.10;99.90
13344;DHT22;6741;48.964;9.406;2024-02-15T08:20:07;10.30;99.90
13344;DHT22;6741;48.964;9.406;2024-02-15T08:22:41;10.50;99.90
13344;DHT22;6741;48.964;9.406;2024-02-15T08:25:10;10.60;99.90
13344;DHT22;6741;48.964;9.406;2024-02-15T08:27:38;10.80;99.90
13344;DHT22;6741;48.964;9.406;2024-02-15T08:30:09;11.00;99.90
13344;DHT22;6741;48.964;9.406;2024-02-15T08:32:37;11.10;99.90
13344;DHT22;6741;48.964;9.406;2024-02-15T08:35:05;11.20;99.90
13344;DHT22;6741;48.964;9.406;2024-02-15T08:37:31;11.30;99.90
13344;DHT22;6741;48.964;9.406;2024-02-15T08:40:03;11.40;99.90
13344;DHT22;6741;48.964;9.406;2024-02-15T08:42:36;11.50;99.90
13344;DHT22;6741;48.964;9.406;2024-02-15T08:45:04;11.70;99.90
13344;DHT22;6741;48.964;9.406;2024-02-15T08:47:35;11.80;99.90
13344;DHT22;6741;48.964;9.406;2024-02-15T08:50:03;11.80;99.90
13344;DHT22;6741;48.964;9.406;2024-02-15T08:52:30;11.80;99.90
13344;DHT22;6741;48.964;9.406;2024-02-15T08:54:57;11.90;99.90
13344;DHT22;6741;48.964;9.406;2024-02-15T08:57:27;12.00;99.90
13344;DHT22;6741;48.964;9.406;2024-02-15T08:59:54;11.90;99.90
13344;DHT22;6741;48.964;9.406;2024-02-15T09:02:21;12.00;99.90
13344;DHT22;6741;48.964;9.406;2024-02-15T09:04:48;12.00;99.90
13344;DHT22;6741;48.964;9.406;2024-02-15T09:07:15;12.20;99.90
13344;DHT22;6741;48.964;9.406;2024-02-15T09:09:42;12.20;99.90
13344;DHT22;6741;48.964;9.406;2024-02-15T09:12:09;12.20;56.10
13344;DHT22;6741;48.964;9.406;2024-02-15T09:14:37;12.20;64.30
13344;DHT22;6741;48.964;9.406;2024-02-15T09:17:04;12.20;49.60
13344;DHT22;6741;48.964;9.406;2024-02-15T09:19:33;12.20;31.50
13344;DHT22;6741;48.964;9.406;2024-02-15T09:22:00;12.30;14.10
13344;DHT22;6741;48.964;9.406;2024-02-15T09:24:27;12.30;1.00
13344;DHT22;6741;48.964;9.406;2024-02-15T09:26:54;12.40;14.40
13344;DHT22;6741;48.964;9.406;2024-02-15T09:29:21;12.40;1.00
13344;DHT22;6741;48.964;9.406;2024-02-15T09:31:51;12.50;1.00
13344;DHT22;6741;48.964;9.406;2024-02-15T09:34:18;12.50;1.00
13344;DHT22;6741;48.964;9.406;2024-02-15T09:36:45;12.50;1.00
13344;DHT22;6741;48.964;9.406;2024-02-15T09:39:12;12.60;1.00
13344;DHT22;6741;48.964;9.406;2024-02-15T09:41:40;12.60;1.00
13344;DHT22;6741;48.964;9.406;2024-02-15T09:44:08;12.70;1.00
13344;DHT22;6741;48.964;9.406;2024-02-15T09:46:35;12.80;1.00
13344;DHT22;6741;48.964;9.406;2024-02-15T09:49:05;12.80;1.00
13344;DHT22;6741;48.964;9.406;2024-02-15T09:51:33;12.90;1.00
13344;DHT22;6741;48.964;9.406;2024-02-15T09:54:01;12.90;1.00
13344;DHT22;6741;48.964;9.406;2024-02-15T09:56:31;13.00;1.00
13344;DHT22;6741;48.964;9.406;2024-02-15T09:59:00;13.10;1.00
13344;DHT22;6741;48.964;9.406;2024-02-15T10:01:37;13.10;1.00
13344;DHT22;6741;48.964;9.406;2024-02-15T10:04:07;13.20;1.00
13344;DHT22;6741;48.964;9.406;2024-02-15T10:06:34;13.30;99.90
13344;DHT22;6741;48.964;9.406;2024-02-15T10:09:26;13.40;99.90
13344;DHT22;6741;48.964;9.406;2024-02-15T10:11:56;13.60;1.00
13344;DHT22;6741;48.964;9.406;2024-02-15T10:14:24;13.80;99.90
13344;DHT22;6741;48.964;9.406;2024-02-15T10:16:51;14.10;1.00
13344;DHT22;6741;48.964;9.406;2024-02-15T10:19:21;14.40;99.90
13344;DHT22;6741;48.964;9.406;2024-02-15T10:21:51;14.70;1.00
13344;DHT22;6741;48.964;9.406;2024-02-15T10:24:21;15.00;1.00
13344;DHT22;6741;48.964;9.406;2024-02-15T10:26:50;15.40;7.70
13344;DHT22;6741;48.964;9.406;2024-02-15T10:29:18;15.70;99.90
13344;DHT22;6741;48.964;9.406;2024-02-15T10:31:55;15.90;1.00
13344;DHT22;6741;48.964;9.406;2024-02-15T10:34:25;16.10;99.90
13344;DHT22;6741;48.964;9.406;2024-02-15T10:36:53;16.50;1.00
13344;DHT22;6741;48.964;9.406;2024-02-15T10:39:22;17.00;1.00
13344;DHT22;6741;48.964;9.406;2024-02-15T10:41:51;17.00;1.00
13344;DHT22;6741;48.964;9.406;2024-02-15T10:44:19;17.40;99.90
13344;DHT22;6741;48.964;9.406;2024-02-15T10:46:48;17.90;1.00
13344;DHT22;6741;48.964;9.406;2024-02-15T10:49:18;18.10;1.00
13344;DHT22;6741;48.964;9.406;2024-02-15T10:51:50;18.60;19.50
13344;DHT22;6741;48.964;9.406;2024-02-15T10:54:32;18.20;89.40
13344;DHT22;6741;48.964;9.406;2024-02-15T10:57:04;18.20;71.60
13344;DHT22;6741;48.964;9.406;2024-02-15T10:59:34;18.60;92.80
13344;DHT22;6741;48.964;9.406;2024-02-15T11:02:06;19.40;92.70
13344;DHT22;6741;48.964;9.406;2024-02-15T11:04:38;19.40;93.50
13344;DHT22;6741;48.964;9.406;2024-02-15T11:07:10;19.90;98.10
13344;DHT22;6741;48.964;9.406;2024-02-15T11:09:38;20.10;99.80
13344;DHT22;6741;48.964;9.406;2024-02-15T11:12:06;20.20;99.90
13344;DHT22;6741;48.964;9.406;2024-02-15T11:14:35;20.50;99.90
13344;DHT22;6741;48.964;9.406;2024-02-15T11:17:03;20.80;99.90
13344;DHT22;6741;48.964;9.406;2024-02-15T11:19:43;21.20;99.90
13344;DHT22;6741;48.964;9.406;2024-02-15T11:22:16;21.90;99.90
13344;DHT22;6741;48.964;9.406;2024-02-15T11:24:47;22.00;99.90
13344;DHT22;6741;48.964;9.406;2024-02-15T11:27:24;22.20;99.40
13344;DHT22;6741;48.964;9.406;2024-02-15T11:29:53;22.40;99.90
13344;DHT22;6741;48.964;9.406;2024-02-15T11:32:37;22.00;99.90
13344;DHT22;6741;48.964;9.406;2024-02-15T11:35:06;22.30;99.40
13344;DHT22;6741;48.964;9.406;2024-02-15T11:37:52;21.70;99.90
13344;DHT22;6741;48.964;9.406;2024-02-15T11:40:20;22.40;99.90
13344;DHT22;6741;48.964;9.406;2024-02-15T11:42:51;23.00;99.90
13344;DHT22;6741;48.964;9.406;2024-02-15T11:45:20;23.90;99.90
13344;DHT22;6741;48.964;9.406;2024-02-15T11:47:50;25.00;99.90
13344;DHT22;6741;48.964;9.406;2024-02-15T11:50:18;25.60;99.90
13344;DHT22;6741;48.964;9.406;2024-02-15T11:52:46;25.40;96.70
13344;DHT22;6741;48.964;9.406;2024-02-15T11:55:18;25.20;96.90
13344;DHT22;6741;48.964;9.406;2024-02-15T11:57:55;25.30;96.70
13344;DHT22;6741;48.964;9.406;2024-02-15T12:00:28;25.80;96.50
13344;DHT22;6741;48.964;9.406;2024-02-15T12:03:14;25.30;95.40
13344;DHT22;6741;48.964;9.406;2024-02-15T12:05:59;25.00;95.40
13344;DHT22;6741;48.964;9.406;2024-02-15T12:14:42;25.70;93.00
13344;DHT22;6741;48.964;9.406;2024-02-15T12:17:26;26.20;93.10
13344;DHT22;6741;48.964;9.406;2024-02-15T12:20:10;26.60;93.00
13344;DHT22;6741;48.964;9.406;2024-02-15T12:22:40;26.60;92.60
13344;DHT22;6741;48.964;9.406;2024-02-15T12:25:14;26.10;91.20
13344;DHT22;6741;48.964;9.406;2024-02-15T12:27:42;25.50;90.50
13344;DHT22;6741;48.964;9.406;2024-02-15T12:30:14;25.30;90.30
13344;DHT22;6741;48.964;9.406;2024-02-15T12:32:45;25.20;90.40
13344;DHT22;6741;48.964;9.406;2024-02-15T12:35:14;25.40;87.40
13344;DHT22;6741;48.964;9.406;2024-02-15T12:37:42;25.80;89.40
13344;DHT22;6741;48.964;9.406;2024-02-15T12:40:13;26.30;89.20
13344;DHT22;6741;48.964;9.406;2024-02-15T12:42:42;26.30;86.50
13344;DHT22;6741;48.964;9.406;2024-02-15T12:45:17;25.70;85.70
13344;DHT22;6741;48.964;9.406;2024-02-15T12:47:47;24.90;87.40
13344;DHT22;6741;48.964;9.406;2024-02-15T12:50:15;24.80;88.90
13344;DHT22;6741;48.964;9.406;2024-02-15T12:52:46;24.50;90.20
13344;DHT22;6741;48.964;9.406;2024-02-15T12:55:15;23.60;90.20
13344;DHT22;6741;48.964;9.406;2024-02-15T12:57:44;22.90;91.20
13344;DHT22;6741;48.964;9.406;2024-02-15T13:00:14;22.00;91.40
13344;DHT22;6741;48.964;9.406;2024-02-15T13:02:45;21.20;92.70
13344;DHT22;6741;48.964;9.406;2024-02-15T13:05:14;20.40;94.20
13344;DHT22;6741;48.964;9.406;2024-02-15T13:07:44;20.60;94.50
13344;DHT22;6741;48.964;9.406;2024-02-15T13:10:10;20.60;95.40
13344;DHT22;6741;48.964;9.406;2024-02-15T13:12:40;20.50;97.00
13344;DHT22;6741;48.964;9.406;2024-02-15T13:15:07;20.20;95.70
13344;DHT22;6741;48.964;9.406;2024-02-15T13:17:38;20.20;96.90
13344;DHT22;6741;48.964;9.406;2024-02-15T13:20:08;20.50;97.30
13344;DHT22;6741;48.964;9.406;2024-02-15T13:22:38;20.60;97.80
13344;DHT22;6741;48.964;9.406;2024-02-15T13:25:06;21.00;96.80
13344;DHT22;6741;48.964;9.406;2024-02-15T13:27:34;21.30;95.80
13344;DHT22;6741;48.964;9.406;2024-02-15T13:30:02;21.60;96.50
13344;DHT22;6741;48.964;9.406;2024-02-15T13:32:29;21.10;96.50
13344;DHT22;6741;48.964;9.406;2024-02-15T13:34:56;20.70;95.80
13344;DHT22;6741;48.964;9.406;2024-02-15T13:37:26;21.00;97.20
13344;DHT22;6741;48.964;9.406;2024-02-15T13:39:53;21.00;98.20
13344;DHT22;6741;48.964;9.406;2024-02-15T13:42:20;21.00;99.20
13344;DHT22;6741;48.964;9.406;2024-02-15T13:44:47;21.00;99.20
13344;DHT22;6741;48.964;9.406;2024-02-15T13:47:14;20.90;98.10
13344;DHT22;6741;48.964;9.406;2024-02-15T13:49:41;20.70;98.00
13344;DHT22;6741;48.964;9.406;2024-02-15T13:52:08;20.30;97.20
13344;DHT22;6741;48.964;9.406;2024-02-15T13:54:41;19.90;99.00
13344;DHT22;6741;48.964;9.406;2024-02-15T13:57:09;19.70;99.50
13344;DHT22;6741;48.964;9.406;2024-02-15T13:59:36;19.30;99.30
13344;DHT22;6741;48.964;9.406;2024-02-15T14:02:04;18.80;99.90
13344;DHT22;6741;48.964;9.406;2024-02-15T14:04:30;18.60;99.90
13344;DHT22;6741;48.964;9.406;2024-02-15T14:06:59;18.40;99.90
13344;DHT22;6741;48.964;9.406;2024-02-15T14:09:27;18.50;99.90
13344;DHT22;6741;48.964;9.406;2024-02-15T14:11:55;18.40;99.90
13344;DHT22;6741;48.964;9.406;2024-02-15T14:14:23;18.40;99.90
13344;DHT22;6741;48.964;9.406;2024-02-15T14:16:50;18.60;99.90
13344;DHT22;6741;48.964;9.406;2024-02-15T14:19:18;18.40;99.90
13344;DHT22;6741;48.964;9.406;2024-02-15T14:21:46;18.40;99.90
13344;DHT22;6741;48.964;9.406;2024-02-15T14:24:13;18.40;99.90
13344;DHT22;6741;48.964;9.406;2024-02-15T14:26:40;18.50;99.90
13344;DHT22;6741;48.964;9.406;2024-02-15T14:29:08;18.60;99.90
13344;DHT22;6741;48.964;9.406;2024-02-15T14:31:36;18.90;99.90
13344;DHT22;6741;48.964;9.406;2024-02-15T14:34:20;19.00;99.90
13344;DHT22;6741;48.964;9.406;2024-02-15T14:36:47;19.00;99.90
13344;DHT22;6741;48.964;9.406;2024-02-15T14:39:14;19.20;99.90
13344;DHT22;6741;48.964;9.406;2024-02-15T14:41:41;19.30;99.90
13344;DHT22;6741;48.964;9.406;2024-02-15T14:44:10;19.30;99.90
13344;DHT22;6741;48.964;9.406;2024-02-15T14:46:38;19.20;99.90
13344;DHT22;6741;48.964;9.406;2024-02-15T14:49:06;19.00;99.90
13344;DHT22;6741;48.964;9.406;2024-02-15T14:51:34;18.80;99.90
13344;DHT22;6741;48.964;9.406;2024-02-15T14:54:02;18.70;99.90
13344;DHT22;6741;48.964;9.406;2024-02-15T14:56:29;18.70;99.90
13344;DHT22;6741;48.964;9.406;2024-02-15T14:58:57;18.50;99.90
13344;DHT22;6741;48.964;9.406;2024-02-15T15:01:27;18.40;99.90
13344;DHT22;6741;48.964;9.406;2024-02-15T15:03:55;18.20;99.90
13344;DHT22;6741;48.964;9.406;2024-02-15T15:06:24;17.90;99.90
13344;DHT22;6741;48.964;9.406;2024-02-15T15:09:09;17.70;99.90
13344;DHT22;6741;48.964;9.406;2024-02-15T15:11:54;17.40;99.90
13344;DHT22;6741;48.964;9.406;2024-02-15T15:14:39;17.10;99.90
13344;DHT22;6741;48.964;9.406;2024-02-15T15:17:09;16.90;99.90
13344;DHT22;6741;48.964;9.406;2024-02-15T15:19:38;16.80;99.90
13344;DHT22;6741;48.964;9.406;2024-02-15T15:22:05;16.50;99.90
13344;DHT22;6741;48.964;9.406;2024-02-15T15:24:33;16.20;99.90
13344;DHT22;6741;48.964;9.406;2024-02-15T15:27:03;16.10;99.90
13344;DHT22;6741;48.964;9.406;2024-02-15T15:29:32;16.10;99.90
13344;DHT22;6741;48.964;9.406;2024-02-15T15:32:00;16.10;99.90
13344;DHT22;6741;48.964;9.406;2024-02-15T15:34:32;16.00;99.90
13344;DHT22;6741;48.964;9.406;2024-02-15T15:37:00;16.00;99.90
13344;DHT22;6741;48.964;9.406;2024-02-15T15:39:27;15.90;99.90
13344;DHT22;6741;48.964;9.406;2024-02-15T15:41:58;15.90;99.90
13344;DHT22;6741;48.964;9.406;2024-02-15T15:44:27;15.80;99.90
13344;DHT22;6741;48.964;9.406;2024-02-15T15:46:56;15.80;99.90
13344;DHT22;6741;48.964;9.406;2024-02-15T15:49:25;15.70;99.90
13344;DHT22;6741;48.964;9.406;2024-02-15T15:51:54;15.70;99.90
13344;DHT22;6741;48.964;9.406;2024-02-15T15:54:23;15.70;99.90
13344;DHT22;6741;48.964;9.406;2024-02-15T15:56:51;15.70;99.90
13344;DHT22;6741;48.964;9.406;2024-02-15T15:59:21;15.60;99.90
13344;DHT22;6741;48.964;9.406;2024-02-15T16:01:50;15.50;99.90
13344;DHT22;6741;48.964;9.406;2024-02-15T16:04:18;15.40;99.90
13344;DHT22;6741;48.964;9.406;2024-02-15T16:06:48;15.50;99.90
13344;DHT22;6741;48.964;9.406;2024-02-15T16:09:17;15.40;99.90
13344;DHT22;6741;48.964;9.406;2024-02-15T16:11:45;15.40;99.90